Time,TemperatureF,DewpointF,PressureIn,WindDirection,WindDirectionDegrees,WindSpeedMPH,WindSpeedGustMPH,Humidity,HourlyPrecipIn,Conditions,Clouds,dailyrainin,SoftwareType,DateUTC
2013-11-26 00:14:00,26.0,23.5,30.34,WNW,292,0.0,6.0,90,0.00,,,-99.99,Weather View 32 v60,2013-11-26 06:14:00,
2013-11-26 00:29:00,26.0,23.2,30.34,WNW,292,0.0,6.0,89,0.00,,,-99.99,Weather View 32 v60,2013-11-26 06:29:00,
2013-11-26 00:30:00,26.0,23.2,30.34,WNW,292,0.0,6.0,89,0.00,,,-99.99,Weather View 32 v60,2013-11-26 06:30:00,
2013-11-26 00:44:00,25.0,22.7,30.34,West,270,0.0,6.0,91,0.00,,,-99.99,Weather View 32 v60,2013-11-26 06:44:00,
2013-11-26 00:59:00,25.0,22.7,30.34,WNW,292,0.0,6.0,91,0.00,,,-99.99,Weather View 32 v60,2013-11-26 06:59:00,
2013-11-26 01:14:00,24.0,22.3,30.34,West,270,0.0,7.0,93,0.00,,,-99.99,Weather View 32 v60,2013-11-26 07:14:00,
2013-11-26 01:29:00,24.0,22.3,30.34,NNE,22,0.0,7.0,93,0.00,,,-99.99,Weather View 32 v60,2013-11-26 07:29:00,
2013-11-26 01:44:00,23.0,21.5,30.35,ENE,67,0.0,7.0,94,0.00,,,-99.99,Weather View 32 v60,2013-11-26 07:44:00,
2013-11-26 01:59:00,23.0,21.5,30.36,NNW,337,0.0,7.0,94,0.00,,,-99.99,Weather View 32 v60,2013-11-26 07:59:00,
2013-11-26 02:14:00,23.0,21.5,30.36,North,360,0.0,1.0,94,0.00,,,-99.99,Weather View 32 v60,2013-11-26 08:14:00,
2013-11-26 02:29:00,23.0,21.5,30.36,NW,315,0.0,4.0,94,0.00,,,-99.99,Weather View 32 v60,2013-11-26 08:29:00,
2013-11-26 02:44:00,24.0,22.3,30.36,NNW,337,0.0,9.0,93,0.00,,,-99.99,Weather View 32 v60,2013-11-26 08:44:00,
2013-11-26 02:59:00,25.0,22.7,30.36,NW,315,7.0,12.0,91,0.00,,,-99.99,Weather View 32 v60,2013-11-26 08:59:00,
2013-11-26 03:14:00,25.0,22.5,30.36,WNW,292,1.0,13.0,90,0.00,,,-99.99,Weather View 32 v60,2013-11-26 09:14:00,
2013-11-26 03:29:00,25.0,22.5,30.36,North,360,3.0,13.0,90,0.00,,,-99.99,Weather View 32 v60,2013-11-26 09:29:00,
2013-11-26 03:44:00,25.0,22.5,30.35,NNW,337,0.0,13.0,90,0.00,,,-99.99,Weather View 32 v60,2013-11-26 09:44:00,
2013-11-26 03:59:00,25.0,22.7,30.35,NW,315,1.0,15.0,91,0.00,,,-99.99,Weather View 32 v60,2013-11-26 09:59:00,
2013-11-26 04:14:00,25.0,22.7,30.36,NNW,337,0.0,15.0,91,0.00,,,-99.99,Weather View 32 v60,2013-11-26 10:14:00,
2013-11-26 04:29:00,26.0,23.7,30.36,NNE,22,7.0,15.0,91,0.00,,,-99.99,Weather View 32 v60,2013-11-26 10:29:00,
2013-11-26 04:44:00,26.0,23.7,30.36,NNW,337,0.0,17.0,91,0.00,,,-99.99,Weather View 32 v60,2013-11-26 10:44:00,
2013-11-26 04:59:00,27.0,24.2,30.36,WNW,292,0.0,17.0,89,0.00,,,-99.99,Weather View 32 v60,2013-11-26 10:59:00,
2013-11-26 05:14:00,28.0,24.4,30.36,NNE,22,4.0,17.0,86,0.00,,,-99.99,Weather View 32 v60,2013-11-26 11:14:00,
2013-11-26 05:29:00,29.0,24.5,30.36,NNE,22,10.0,17.0,83,0.00,,,-99.99,Weather View 32 v60,2013-11-26 11:29:00,
2013-11-26 05:44:00,29.0,24.5,30.36,NNE,22,13.0,19.0,83,0.00,,,-99.99,Weather View 32 v60,2013-11-26 11:44:00,
2013-11-26 05:59:00,29.0,24.8,30.37,NNW,337,6.0,20.0,84,0.00,,,-99.99,Weather View 32 v60,2013-11-26 11:59:00,
2013-11-26 06:14:00,29.0,24.5,30.38,NNE,22,8.0,20.0,83,0.00,,,-99.99,Weather View 32 v60,2013-11-26 12:14:00,
2013-11-26 06:29:00,29.0,24.5,30.38,NNW,337,2.0,20.0,83,0.00,,,-99.99,Weather View 32 v60,2013-11-26 12:29:00,
2013-11-26 06:44:00,29.0,23.0,30.38,NE,45,1.0,20.0,78,0.00,,,-99.99,Weather View 32 v60,2013-11-26 12:44:00,
2013-11-26 06:59:00,28.0,22.0,30.39,NNW,337,24.0,26.0,78,0.00,,,-99.99,Weather View 32 v60,2013-11-26 12:59:00,
2013-11-26 07:14:00,28.0,22.0,30.40,North,360,4.0,26.0,78,0.00,,,-99.99,Weather View 32 v60,2013-11-26 13:14:00,
2013-11-26 07:29:00,27.0,20.8,30.42,NW,315,5.0,26.0,77,0.00,,,-99.99,Weather View 32 v60,2013-11-26 13:29:00,
2013-11-26 07:44:00,26.0,20.7,30.42,NNW,337,3.0,26.0,80,0.00,,,-99.99,Weather View 32 v60,2013-11-26 13:44:00,
2013-11-26 07:59:00,25.0,19.4,30.44,NNE,22,0.0,26.0,79,0.00,,,-99.99,Weather View 32 v60,2013-11-26 13:59:00,
2013-11-26 08:14:00,23.0,17.8,30.45,NE,45,7.0,22.0,80,0.00,,,-99.99,Weather View 32 v60,2013-11-26 14:14:00,
2013-11-26 08:29:00,25.0,18.2,30.46,ENE,67,0.0,22.0,75,0.00,,,-99.99,Weather View 32 v60,2013-11-26 14:29:00,
2013-11-26 08:44:00,24.0,17.2,30.47,NW,315,0.0,22.0,75,0.00,,,-99.99,Weather View 32 v60,2013-11-26 14:44:00,
2013-11-26 08:59:00,23.0,17.2,30.48,NNW,337,6.0,17.0,78,0.00,,,-99.99,Weather View 32 v60,2013-11-26 14:59:00,
2013-11-26 09:14:00,23.0,16.6,30.48,NW,315,8.0,18.0,76,0.00,,,-99.99,Weather View 32 v60,2013-11-26 15:14:00,
2013-11-26 09:29:00,21.0,13.7,30.49,NNW,337,15.0,27.0,73,0.00,,,-99.99,Weather View 32 v60,2013-11-26 15:29:00,
2013-11-26 09:44:00,21.0,14.6,30.50,NNE,22,8.0,27.0,76,0.00,,,-99.99,Weather View 32 v60,2013-11-26 15:44:00,
2013-11-26 09:59:00,21.0,14.3,30.51,NNW,337,13.0,27.0,75,0.00,,,-99.99,Weather View 32 v60,2013-11-26 15:59:00,
2013-11-26 10:14:00,22.0,14.4,30.52,NE,45,2.0,27.0,72,0.00,,,-99.99,Weather View 32 v60,2013-11-26 16:14:00,
2013-11-26 10:29:00,22.0,13.7,30.52,ENE,67,0.0,27.0,70,0.00,,,-99.99,Weather View 32 v60,2013-11-26 16:29:00,
2013-11-26 10:44:00,23.0,11.6,30.52,NE,45,2.0,26.0,61,0.00,,,-99.99,Weather View 32 v60,2013-11-26 16:44:00,
2013-11-26 10:49:00,23.0,11.6,30.52,NE,45,2.0,26.0,61,0.00,,,-99.99,Weather View 32 v60,2013-11-26 16:49:00,
2013-11-26 10:59:00,23.0,11.2,30.52,NNE,22,4.0,25.0,60,0.00,,,-99.99,Weather View 32 v60,2013-11-26 16:59:00,
2013-11-26 11:14:00,24.0,10.2,30.52,North,360,13.0,25.0,55,0.00,,,-99.99,Weather View 32 v60,2013-11-26 17:14:00,
2013-11-26 11:29:00,24.0,8.9,30.51,NNW,337,1.0,25.0,52,0.00,,,-99.99,Weather View 32 v60,2013-11-26 17:29:00,
2013-11-26 11:44:00,24.0,7.6,30.51,NW,315,13.0,27.0,49,0.00,,,-99.99,Weather View 32 v60,2013-11-26 17:44:00,
2013-11-26 11:50:00,24.0,7.6,30.51,NW,315,13.0,27.0,49,0.00,,,-99.99,Weather View 32 v60,2013-11-26 17:50:00,
2013-11-26 11:59:00,25.0,7.6,30.50,ENE,67,9.0,27.0,47,0.00,,,-99.99,Weather View 32 v60,2013-11-26 17:59:00,
2013-11-26 12:14:00,25.0,7.6,30.50,North,360,10.0,30.0,47,0.00,,,-99.99,Weather View 32 v60,2013-11-26 18:14:00,
2013-11-26 12:29:00,25.0,6.2,30.49,NW,315,10.0,30.0,44,0.00,,,-99.99,Weather View 32 v60,2013-11-26 18:29:00,
2013-11-26 12:44:00,25.0,7.1,30.49,NW,315,15.0,30.0,46,0.00,,,-99.99,Weather View 32 v60,2013-11-26 18:44:00,
2013-11-26 12:50:00,25.0,7.1,30.49,NW,315,15.0,30.0,46,0.00,,,-99.99,Weather View 32 v60,2013-11-26 18:50:00,
2013-11-26 12:59:00,25.0,6.6,30.48,NNE,22,9.0,31.0,45,0.00,,,-99.99,Weather View 32 v60,2013-11-26 18:59:00,
2013-11-26 13:14:00,26.0,7.1,30.48,NE,45,10.0,31.0,44,0.00,,,-99.99,Weather View 32 v60,2013-11-26 19:14:00,
2013-11-26 13:29:00,26.0,7.6,30.48,NNW,337,7.0,31.0,45,0.00,,,-99.99,Weather View 32 v60,2013-11-26 19:29:00,
2013-11-26 13:44:00,26.0,7.6,30.47,NW,315,9.0,31.0,45,0.00,,,-99.99,Weather View 32 v60,2013-11-26 19:44:00,
2013-11-26 13:51:00,26.0,7.6,30.47,NW,315,9.0,31.0,45,0.00,,,-99.99,Weather View 32 v60,2013-11-26 19:51:00,
2013-11-26 13:59:00,26.0,7.6,30.48,NNW,337,10.0,29.0,45,0.00,,,-99.99,Weather View 32 v60,2013-11-26 19:59:00,
2013-11-26 14:14:00,26.0,6.0,30.47,NNW,337,10.0,29.0,42,0.00,,,-99.99,Weather View 32 v60,2013-11-26 20:14:00,
2013-11-26 14:29:00,26.0,6.6,30.48,North,360,12.0,29.0,43,0.00,,,-99.99,Weather View 32 v60,2013-11-26 20:29:00,
2013-11-26 14:44:00,26.0,6.6,30.47,NNW,337,13.0,29.0,43,0.00,,,-99.99,Weather View 32 v60,2013-11-26 20:44:00,
2013-11-26 14:52:00,26.0,6.6,30.47,NNW,337,13.0,29.0,43,0.00,,,-99.99,Weather View 32 v60,2013-11-26 20:52:00,
2013-11-26 14:59:00,26.0,6.6,30.48,NE,45,8.0,28.0,43,0.00,,,-99.99,Weather View 32 v60,2013-11-26 20:59:00,
2013-11-26 15:14:00,26.0,6.6,30.48,North,360,7.0,28.0,43,0.00,,,-99.99,Weather View 32 v60,2013-11-26 21:14:00,
2013-11-26 15:29:00,26.0,6.6,30.48,NNE,22,7.0,28.0,43,0.00,,,-99.99,Weather View 32 v60,2013-11-26 21:29:00,
2013-11-26 15:44:00,26.0,7.6,30.48,NNE,22,6.0,28.0,45,0.00,,,-99.99,Weather View 32 v60,2013-11-26 21:44:00,
2013-11-26 15:52:00,26.0,7.6,30.48,NNE,22,6.0,28.0,45,0.00,,,-99.99,Weather View 32 v60,2013-11-26 21:52:00,
2013-11-26 15:59:00,25.0,7.1,30.49,NW,315,1.0,26.0,46,0.00,,,-99.99,Weather View 32 v60,2013-11-26 21:59:00,
2013-11-26 16:14:00,25.0,7.6,30.48,NNW,337,9.0,26.0,47,0.00,,,-99.99,Weather View 32 v60,2013-11-26 22:14:00,
2013-11-26 16:29:00,25.0,8.1,30.48,NNW,337,7.0,23.0,48,0.00,,,-99.99,Weather View 32 v60,2013-11-26 22:29:00,
2013-11-26 16:44:00,24.0,7.1,30.50,NNW,337,7.0,23.0,48,0.00,,,-99.99,Weather View 32 v60,2013-11-26 22:44:00,
2013-11-26 16:53:00,24.0,7.1,30.50,NNW,337,7.0,23.0,48,0.00,,,-99.99,Weather View 32 v60,2013-11-26 22:53:00,
2013-11-26 16:59:00,23.0,7.1,30.50,NNW,337,6.0,23.0,50,0.00,,,-99.99,Weather View 32 v60,2013-11-26 22:59:00,
2013-11-26 17:14:00,23.0,8.0,30.50,NNW,337,7.0,22.0,52,0.00,,,-99.99,Weather View 32 v60,2013-11-26 23:14:00,
2013-11-26 17:29:00,23.0,8.8,30.50,NNW,337,2.0,22.0,54,0.00,,,-99.99,Weather View 32 v60,2013-11-26 23:29:00,
2013-11-26 17:44:00,22.0,8.7,30.51,NNW,337,7.0,22.0,56,0.00,,,-99.99,Weather View 32 v60,2013-11-26 23:44:00,
2013-11-26 17:53:00,22.0,8.7,30.51,NNW,337,7.0,22.0,56,0.00,,,-99.99,Weather View 32 v60,2013-11-26 23:53:00,
2013-11-26 17:59:00,22.0,9.1,30.51,NNW,337,12.0,17.0,57,0.00,,,-99.99,Weather View 32 v60,2013-11-26 23:59:00,
2013-11-26 18:14:00,21.0,8.5,30.51,NNW,337,0.0,15.0,58,0.00,,,-99.99,Weather View 32 v60,2013-11-27 00:14:00,
2013-11-26 18:29:00,21.0,9.3,30.51,North,360,0.0,15.0,60,0.00,,,-99.99,Weather View 32 v60,2013-11-27 00:29:00,
2013-11-26 18:44:00,20.0,9.8,30.52,NW,315,0.0,15.0,64,0.00,,,-99.99,Weather View 32 v60,2013-11-27 00:44:00,
2013-11-26 18:59:00,20.0,10.8,30.52,NNW,337,0.0,13.0,67,0.00,,,-99.99,Weather View 32 v60,2013-11-27 00:59:00,
2013-11-26 19:14:00,20.0,11.1,30.52,NNE,22,0.0,11.0,68,0.00,,,-99.99,Weather View 32 v60,2013-11-27 01:14:00,
2013-11-26 19:29:00,19.0,10.8,30.52,NW,315,0.0,11.0,70,0.00,,,-99.99,Weather View 32 v60,2013-11-27 01:29:00,
2013-11-26 19:44:00,19.0,10.8,30.52,NNW,337,0.0,11.0,70,0.00,,,-99.99,Weather View 32 v60,2013-11-27 01:44:00,
2013-11-26 19:59:00,19.0,11.2,30.53,NW,315,4.0,11.0,71,0.00,,,-99.99,Weather View 32 v60,2013-11-27 01:59:00,
2013-11-26 20:14:00,19.0,11.5,30.53,NW,315,0.0,9.0,72,0.00,,,-99.99,Weather View 32 v60,2013-11-27 02:14:00,
2013-11-26 20:29:00,18.0,11.1,30.53,North,360,1.0,10.0,74,0.00,,,-99.99,Weather View 32 v60,2013-11-27 02:29:00,
2013-11-26 20:44:00,19.0,11.5,30.53,NNW,337,4.0,12.0,72,0.00,,,-99.99,Weather View 32 v60,2013-11-27 02:44:00,
2013-11-26 20:45:00,19.0,11.5,30.53,NNW,337,4.0,12.0,72,0.00,,,-99.99,Weather View 32 v60,2013-11-27 02:45:00,
2013-11-26 20:59:00,18.0,10.8,30.53,North,360,10.0,12.0,73,0.00,,,-99.99,Weather View 32 v60,2013-11-27 02:59:00,
2013-11-26 21:14:00,18.0,11.1,30.53,NNW,337,6.0,13.0,74,0.00,,,-99.99,Weather View 32 v60,2013-11-27 03:14:00,
2013-11-26 21:29:00,17.0,10.7,30.53,NNW,337,0.0,13.0,76,0.00,,,-99.99,Weather View 32 v60,2013-11-27 03:29:00,
2013-11-26 21:44:00,17.0,11.0,30.54,NW,315,0.0,13.0,77,0.00,,,-99.99,Weather View 32 v60,2013-11-27 03:44:00,
2013-11-26 21:45:00,17.0,11.0,30.54,NW,315,0.0,13.0,77,0.00,,,-99.99,Weather View 32 v60,2013-11-27 03:45:00,
2013-11-26 21:59:00,16.0,10.6,30.54,North,360,0.0,13.0,79,0.00,,,-99.99,Weather View 32 v60,2013-11-27 03:59:00,
2013-11-26 22:14:00,16.0,10.9,30.54,NNW,337,0.0,9.0,80,0.00,,,-99.99,Weather View 32 v60,2013-11-27 04:14:00,
2013-11-26 22:29:00,15.0,10.8,30.55,WNW,292,0.0,6.0,83,0.00,,,-99.99,Weather View 32 v60,2013-11-27 04:29:00,
2013-11-26 22:44:00,15.0,11.0,30.56,WNW,292,0.0,6.0,84,0.00,,,-99.99,Weather View 32 v60,2013-11-27 04:44:00,
2013-11-26 22:45:00,15.0,11.0,30.56,WNW,292,0.0,6.0,84,0.00,,,-99.99,Weather View 32 v60,2013-11-27 04:45:00,
2013-11-26 22:59:00,14.0,10.3,30.56,West,270,0.0,4.0,85,0.00,,,-99.99,Weather View 32 v60,2013-11-27 04:59:00,
2013-11-26 23:14:00,14.0,11.1,30.56,NW,315,0.0,4.0,88,0.00,,,-99.99,Weather View 32 v60,2013-11-27 05:14:00,
2013-11-26 23:29:00,14.0,11.4,30.56,NW,315,0.0,4.0,89,0.00,,,-99.99,Weather View 32 v60,2013-11-27 05:29:00,
2013-11-26 23:44:00,13.0,10.6,30.56,NNW,337,0.0,3.0,90,0.00,,,-99.99,Weather View 32 v60,2013-11-27 05:44:00,
2013-11-26 23:45:00,13.0,10.6,30.56,NNW,337,0.0,3.0,90,0.00,,,-99.99,Weather View 32 v60,2013-11-27 05:45:00,
2013-11-26 23:59:00,13.0,11.1,30.56,NW,315,0.0,0.0,92,0.00,,,-99.99,Weather View 32 v60,2013-11-27 05:59:00,